sensor_id;sensor_type;location;lat;lon;timestamp;P1;durP1;ratioP1;P2;durP2;ratioP2
3849;SDS011;1940;51.052;13.678;2024-01-30T00:00:54;28.90;;;13.90;;
3849;SDS011;1940;51.052;13.678;2024-01-30T00:03:20;34.27;;;14.27;;
3849;SDS011;1940;51.052;13.678;2024-01-30T00:05:45;29.90;;;13.80;;
3849;SDS011;1940;51.052;13.678;2024-01-30T00:08:11;26.57;;;13.37;;
3849;SDS011;1940;51.052;13.678;2024-01-30T00:10:36;31.40;;;14.87;;
3849;SDS011;1940;51.052;13.678;2024-01-30T00:13:02;32.77;;;14.50;;
3849;SDS011;1940;51.052;13.678;2024-01-30T00:15:27;31.33;;;14.50;;
3849;SDS011;1940;51.052;13.678;2024-01-30T00:17:53;30.40;;;15.70;;
3849;SDS011;1940;51.052;13.678;2024-01-30T00:20:18;33.90;;;14.10;;
3849;SDS011;1940;51.052;13.678;2024-01-30T00:22:45;25.70;;;13.83;;
3849;SDS011;1940;51.052;13.678;2024-01-30T00:25:11;28.00;;;13.77;;
3849;SDS011;1940;51.052;13.678;2024-01-30T00:27:36;28.30;;;13.40;;
3849;SDS011;1940;51.052;13.678;2024-01-30T00:30:02;27.07;;;13.20;;
3849;SDS011;1940;51.052;13.678;2024-01-30T00:32:27;26.90;;;13.73;;
3849;SDS011;1940;51.052;13.678;2024-01-30T00:34:53;31.73;;;13.60;;
3849;SDS011;1940;51.052;13.678;2024-01-30T00:37:18;28.13;;;13.10;;
3849;SDS011;1940;51.052;13.678;2024-01-30T00:39:44;28.23;;;12.70;;
3849;SDS011;1940;51.052;13.678;2024-01-30T00:42:09;32.43;;;14.10;;
3849;SDS011;1940;51.052;13.678;2024-01-30T00:44:35;32.47;;;14.93;;
3849;SDS011;1940;51.052;13.678;2024-01-30T00:47:03;29.20;;;13.30;;
3849;SDS011;1940;51.052;13.678;2024-01-30T00:49:29;34.83;;;14.00;;
3849;SDS011;1940;51.052;13.678;2024-01-30T00:51:54;27.50;;;13.70;;
3849;SDS011;1940;51.052;13.678;2024-01-30T00:54:20;28.57;;;14.07;;
3849;SDS011;1940;51.052;13.678;2024-01-30T00:56:45;27.80;;;13.90;;
3849;SDS011;1940;51.052;13.678;2024-01-30T00:59:11;33.40;;;14.07;;
3849;SDS011;1940;51.052;13.678;2024-01-30T01:01:36;34.00;;;13.10;;
3849;SDS011;1940;51.052;13.678;2024-01-30T01:04:02;30.80;;;13.90;;
3849;SDS011;1940;51.052;13.678;2024-01-30T01:06:27;27.20;;;13.90;;
3849;SDS011;1940;51.052;13.678;2024-01-30T01:08:53;24.30;;;13.17;;
3849;SDS011;1940;51.052;13.678;2024-01-30T01:11:18;30.57;;;13.30;;
3849;SDS011;1940;51.052;13.678;2024-01-30T01:13:44;29.40;;;13.47;;
3849;SDS011;1940;51.052;13.678;2024-01-30T01:16:09;31.80;;;13.97;;
3849;SDS011;1940;51.052;13.678;2024-01-30T01:18:35;26.73;;;13.23;;
3849;SDS011;1940;51.052;13.678;2024-01-30T01:21:00;29.23;;;12.90;;
3849;SDS011;1940;51.052;13.678;2024-01-30T01:23:26;32.47;;;13.30;;
3849;SDS011;1940;51.052;13.678;2024-01-30T01:25:51;29.30;;;13.60;;
3849;SDS011;1940;51.052;13.678;2024-01-30T01:28:17;24.13;;;12.93;;
3849;SDS011;1940;51.052;13.678;2024-01-30T01:30:42;24.63;;;12.73;;
3849;SDS011;1940;51.052;13.678;2024-01-30T01:33:08;26.13;;;12.63;;
3849;SDS011;1940;51.052;13.678;2024-01-30T01:35:35;24.03;;;12.07;;
3849;SDS011;1940;51.052;13.678;2024-01-30T01:38:00;25.90;;;12.17;;
3849;SDS011;1940;51.052;13.678;2024-01-30T01:40:26;25.00;;;12.03;;
3849;SDS011;1940;51.052;13.678;2024-01-30T01:42:53;23.70;;;12.63;;
3849;SDS011;1940;51.052;13.678;2024-01-30T01:45:19;29.00;;;12.53;;
3849;SDS011;1940;51.052;13.678;2024-01-30T01:47:47;25.80;;;12.07;;
3849;SDS011;1940;51.052;13.678;2024-01-30T01:50:15;26.07;;;13.57;;
3849;SDS011;1940;51.052;13.678;2024-01-30T01:52:44;24.50;;;12.70;;
3849;SDS011;1940;51.052;13.678;2024-01-30T01:55:14;24.13;;;12.47;;
3849;SDS011;1940;51.052;13.678;2024-01-30T01:57:42;25.43;;;11.93;;
3849;SDS011;1940;51.052;13.678;2024-01-30T02:00:08;24.97;;;11.90;;
3849;SDS011;1940;51.052;13.678;2024-01-30T02:02:35;23.70;;;12.13;;
3849;SDS011;1940;51.052;13.678;2024-01-30T02:05:01;23.20;;;11.33;;
3849;SDS011;1940;51.052;13.678;2024-01-30T02:07:30;23.80;;;11.63;;
3849;SDS011;1940;51.052;13.678;2024-01-30T02:09:56;21.60;;;11.47;;
3849;SDS011;1940;51.052;13.678;2024-01-30T02:12:21;23.63;;;11.47;;
3849;SDS011;1940;51.052;13.678;2024-01-30T02:14:47;24.10;;;11.43;;
3849;SDS011;1940;51.052;13.678;2024-01-30T02:17:13;25.70;;;11.63;;
3849;SDS011;1940;51.052;13.678;2024-01-30T02:19:40;22.60;;;12.00;;
3849;SDS011;1940;51.052;13.678;2024-01-30T02:22:06;25.40;;;11.53;;
3849;SDS011;1940;51.052;13.678;2024-01-30T02:24:32;24.47;;;12.00;;
3849;SDS011;1940;51.052;13.678;2024-01-30T02:26:58;22.53;;;11.33;;
3849;SDS011;1940;51.052;13.678;2024-01-30T02:29:24;23.90;;;11.30;;
3849;SDS011;1940;51.052;13.678;2024-01-30T02:31:49;21.30;;;10.97;;
3849;SDS011;1940;51.052;13.678;2024-01-30T02:34:15;23.20;;;11.40;;
3849;SDS011;1940;51.052;13.678;2024-01-30T02:36:44;26.50;;;11.90;;
3849;SDS011;1940;51.052;13.678;2024-01-30T02:39:09;23.77;;;11.37;;
3849;SDS011;1940;51.052;13.678;2024-01-30T02:41:35;24.07;;;11.00;;
3849;SDS011;1940;51.052;13.678;2024-01-30T02:44:01;23.30;;;10.90;;
3849;SDS011;1940;51.052;13.678;2024-01-30T02:46:27;24.10;;;10.93;;
3849;SDS011;1940;51.052;13.678;2024-01-30T02:48:52;23.43;;;10.80;;
3849;SDS011;1940;51.052;13.678;2024-01-30T02:51:18;26.20;;;12.37;;
3849;SDS011;1940;51.052;13.678;2024-01-30T02:53:43;23.40;;;11.53;;
3849;SDS011;1940;51.052;13.678;2024-01-30T02:56:09;21.47;;;10.80;;
3849;SDS011;1940;51.052;13.678;2024-01-30T02:58:35;28.00;;;12.33;;
3849;SDS011;1940;51.052;13.678;2024-01-30T03:01:01;24.80;;;12.00;;
3849;SDS011;1940;51.052;13.678;2024-01-30T03:03:27;20.97;;;11.10;;
3849;SDS011;1940;51.052;13.678;2024-01-30T03:05:53;22.77;;;11.03;;
3849;SDS011;1940;51.052;13.678;2024-01-30T03:08:18;22.80;;;11.87;;
3849;SDS011;1940;51.052;13.678;2024-01-30T03:10:44;24.27;;;11.90;;
3849;SDS011;1940;51.052;13.678;2024-01-30T03:13:09;25.77;;;12.77;;
3849;SDS011;1940;51.052;13.678;2024-01-30T03:15:35;24.20;;;11.93;;
3849;SDS011;1940;51.052;13.678;2024-01-30T03:18:00;30.00;;;11.60;;
3849;SDS011;1940;51.052;13.678;2024-01-30T03:20:26;24.87;;;11.67;;
3849;SDS011;1940;51.052;13.678;2024-01-30T03:22:52;26.00;;;11.40;;
3849;SDS011;1940;51.052;13.678;2024-01-30T03:25:18;26.03;;;12.33;;
3849;SDS011;1940;51.052;13.678;2024-01-30T03:27:44;29.93;;;11.67;;
3849;SDS011;1940;51.052;13.678;2024-01-30T03:30:09;26.27;;;11.40;;
3849;SDS011;1940;51.052;13.678;2024-01-30T03:32:35;31.00;;;12.43;;
3849;SDS011;1940;51.052;13.678;2024-01-30T03:35:00;24.37;;;11.93;;
3849;SDS011;1940;51.052;13.678;2024-01-30T03:37:26;23.60;;;11.67;;
3849;SDS011;1940;51.052;13.678;2024-01-30T03:39:51;24.37;;;11.57;;
3849;SDS011;1940;51.052;13.678;2024-01-30T03:42:17;23.60;;;11.83;;
3849;SDS011;1940;51.052;13.678;2024-01-30T03:44:42;28.93;;;12.13;;
3849;SDS011;1940;51.052;13.678;2024-01-30T03:47:08;23.63;;;11.53;;
3849;SDS011;1940;51.052;13.678;2024-01-30T03:49:33;25.77;;;12.03;;
3849;SDS011;1940;51.052;13.678;2024-01-30T03:51:59;26.03;;;12.90;;
3849;SDS011;1940;51.052;13.678;2024-01-30T03:54:24;22.77;;;11.53;;
3849;SDS011;1940;51.052;13.678;2024-01-30T03:56:50;23.50;;;11.73;;
3849;SDS011;1940;51.052;13.678;2024-01-30T03:59:15;23.40;;;11.00;;
3849;SDS011;1940;51.052;13.678;2024-01-30T04:01:42;23.13;;;10.47;;
3849;SDS011;1940;51.052;13.678;2024-01-30T04:04:08;22.17;;;11.47;;
3849;SDS011;1940;51.052;13.678;2024-01-30T04:06:33;22.80;;;12.53;;
3849;SDS011;1940;51.052;13.678;2024-01-30T04:08:59;19.97;;;11.40;;
3849;SDS011;1940;51.052;13.678;2024-01-30T04:11:24;27.93;;;11.37;;
3849;SDS011;1940;51.052;13.678;2024-01-30T04:13:50;28.87;;;12.23;;
3849;SDS011;1940;51.052;13.678;2024-01-30T04:16:19;27.47;;;12.63;;
3849;SDS011;1940;51.052;13.678;2024-01-30T04:18:46;21.37;;;11.70;;
3849;SDS011;1940;51.052;13.678;2024-01-30T04:21:11;30.30;;;13.87;;
3849;SDS011;1940;51.052;13.678;2024-01-30T04:23:37;31.17;;;12.77;;
3849;SDS011;1940;51.052;13.678;2024-01-30T04:26:02;24.83;;;12.33;;
3849;SDS011;1940;51.052;13.678;2024-01-30T04:28:28;21.80;;;10.07;;
3849;SDS011;1940;51.052;13.678;2024-01-30T04:30:53;25.60;;;12.07;;
3849;SDS011;1940;51.052;13.678;2024-01-30T04:33:19;26.30;;;12.27;;
3849;SDS011;1940;51.052;13.678;2024-01-30T04:35:44;29.13;;;11.60;;
3849;SDS011;1940;51.052;13.678;2024-01-30T04:38:10;27.03;;;12.67;;
3849;SDS011;1940;51.052;13.678;2024-01-30T04:40:35;27.43;;;12.60;;
3849;SDS011;1940;51.052;13.678;2024-01-30T04:43:01;21.13;;;11.00;;
3849;SDS011;1940;51.052;13.678;2024-01-30T04:45:26;26.37;;;12.47;;
3849;SDS011;1940;51.052;13.678;2024-01-30T04:47:52;21.73;;;11.40;;
3849;SDS011;1940;51.052;13.678;2024-01-30T04:50:17;27.10;;;12.47;;
3849;SDS011;1940;51.052;13.678;2024-01-30T04:52:43;27.03;;;12.17;;
3849;SDS011;1940;51.052;13.678;2024-01-30T04:55:09;27.43;;;12.43;;
3849;SDS011;1940;51.052;13.678;2024-01-30T04:57:34;25.13;;;12.20;;
3849;SDS011;1940;51.052;13.678;2024-01-30T05:00:00;24.53;;;12.37;;
3849;SDS011;1940;51.052;13.678;2024-01-30T05:02:26;22.10;;;11.27;;
3849;SDS011;1940;51.052;13.678;2024-01-30T05:04:52;24.47;;;12.00;;
3849;SDS011;1940;51.052;13.678;2024-01-30T05:07:17;26.63;;;12.43;;
3849;SDS011;1940;51.052;13.678;2024-01-30T05:09:43;26.03;;;11.80;;
3849;SDS011;1940;51.052;13.678;2024-01-30T05:12:08;25.33;;;13.10;;
3849;SDS011;1940;51.052;13.678;2024-01-30T05:14:34;27.20;;;12.50;;
3849;SDS011;1940;51.052;13.678;2024-01-30T05:16:59;28.07;;;12.40;;
3849;SDS011;1940;51.052;13.678;2024-01-30T05:19:25;21.07;;;11.93;;
3849;SDS011;1940;51.052;13.678;2024-01-30T05:21:50;26.93;;;12.20;;
3849;SDS011;1940;51.052;13.678;2024-01-30T05:24:16;25.40;;;11.73;;
3849;SDS011;1940;51.052;13.678;2024-01-30T05:26:41;21.73;;;12.30;;
3849;SDS011;1940;51.052;13.678;2024-01-30T05:29:07;26.87;;;11.53;;
3849;SDS011;1940;51.052;13.678;2024-01-30T05:31:33;26.30;;;12.53;;
3849;SDS011;1940;51.052;13.678;2024-01-30T05:33:59;30.27;;;13.20;;
3849;SDS011;1940;51.052;13.678;2024-01-30T05:36:25;22.10;;;11.73;;
3849;SDS011;1940;51.052;13.678;2024-01-30T05:38:50;26.80;;;12.40;;
3849;SDS011;1940;51.052;13.678;2024-01-30T05:41:16;27.43;;;12.23;;
3849;SDS011;1940;51.052;13.678;2024-01-30T05:43:41;24.03;;;12.47;;
3849;SDS011;1940;51.052;13.678;2024-01-30T05:46:07;24.80;;;12.40;;
3849;SDS011;1940;51.052;13.678;2024-01-30T05:48:32;23.57;;;11.97;;
3849;SDS011;1940;51.052;13.678;2024-01-30T05:51:04;27.93;;;11.67;;
3849;SDS011;1940;51.052;13.678;2024-01-30T05:53:29;25.70;;;12.53;;
3849;SDS011;1940;51.052;13.678;2024-01-30T05:55:55;28.27;;;12.10;;
3849;SDS011;1940;51.052;13.678;2024-01-30T05:58:20;21.87;;;11.40;;
3849;SDS011;1940;51.052;13.678;2024-01-30T06:00:46;27.27;;;12.73;;
3849;SDS011;1940;51.052;13.678;2024-01-30T06:03:12;29.37;;;12.43;;
3849;SDS011;1940;51.052;13.678;2024-01-30T06:05:37;28.97;;;12.03;;
3849;SDS011;1940;51.052;13.678;2024-01-30T06:08:03;26.73;;;11.90;;
3849;SDS011;1940;51.052;13.678;2024-01-30T06:10:29;27.30;;;12.80;;
3849;SDS011;1940;51.052;13.678;2024-01-30T06:12:54;32.10;;;12.87;;
3849;SDS011;1940;51.052;13.678;2024-01-30T06:15:19;26.70;;;12.67;;
3849;SDS011;1940;51.052;13.678;2024-01-30T06:17:45;25.83;;;12.53;;
3849;SDS011;1940;51.052;13.678;2024-01-30T06:20:11;22.70;;;11.83;;
3849;SDS011;1940;51.052;13.678;2024-01-30T06:22:36;28.03;;;12.10;;
3849;SDS011;1940;51.052;13.678;2024-01-30T06:25:02;28.73;;;13.27;;
3849;SDS011;1940;51.052;13.678;2024-01-30T06:27:28;19.27;;;11.20;;
3849;SDS011;1940;51.052;13.678;2024-01-30T06:29:53;23.60;;;12.20;;
3849;SDS011;1940;51.052;13.678;2024-01-30T06:32:19;27.00;;;12.43;;
3849;SDS011;1940;51.052;13.678;2024-01-30T06:34:44;24.33;;;11.73;;
3849;SDS011;1940;51.052;13.678;2024-01-30T06:37:10;31.80;;;12.13;;
3849;SDS011;1940;51.052;13.678;2024-01-30T06:39:35;25.40;;;11.70;;
3849;SDS011;1940;51.052;13.678;2024-01-30T06:42:01;29.33;;;11.97;;
3849;SDS011;1940;51.052;13.678;2024-01-30T06:44:26;27.53;;;11.47;;
3849;SDS011;1940;51.052;13.678;2024-01-30T06:46:52;25.13;;;11.23;;
3849;SDS011;1940;51.052;13.678;2024-01-30T06:49:17;23.27;;;11.63;;
3849;SDS011;1940;51.052;13.678;2024-01-30T06:51:43;25.80;;;11.30;;
3849;SDS011;1940;51.052;13.678;2024-01-30T06:54:08;22.43;;;11.67;;
3849;SDS011;1940;51.052;13.678;2024-01-30T06:56:34;24.30;;;11.63;;
3849;SDS011;1940;51.052;13.678;2024-01-30T06:58:59;26.67;;;12.03;;
3849;SDS011;1940;51.052;13.678;2024-01-30T07:01:28;27.83;;;12.23;;
3849;SDS011;1940;51.052;13.678;2024-01-30T07:03:54;26.60;;;11.47;;
3849;SDS011;1940;51.052;13.678;2024-01-30T07:06:20;23.93;;;11.50;;
3849;SDS011;1940;51.052;13.678;2024-01-30T07:08:45;25.13;;;12.20;;
3849;SDS011;1940;51.052;13.678;2024-01-30T07:11:17;21.63;;;11.20;;
3849;SDS011;1940;51.052;13.678;2024-01-30T07:13:47;24.90;;;11.30;;
3849;SDS011;1940;51.052;13.678;2024-01-30T07:16:13;25.47;;;11.63;;
3849;SDS011;1940;51.052;13.678;2024-01-30T07:18:39;18.73;;;10.60;;
3849;SDS011;1940;51.052;13.678;2024-01-30T07:21:04;19.67;;;10.37;;
3849;SDS011;1940;51.052;13.678;2024-01-30T07:23:30;21.03;;;10.90;;
3849;SDS011;1940;51.052;13.678;2024-01-30T07:25:55;22.13;;;11.40;;
3849;SDS011;1940;51.052;13.678;2024-01-30T07:28:21;21.00;;;10.97;;
3849;SDS011;1940;51.052;13.678;2024-01-30T07:30:46;24.87;;;11.57;;
3849;SDS011;1940;51.052;13.678;2024-01-30T07:33:13;26.20;;;11.73;;
3849;SDS011;1940;51.052;13.678;2024-01-30T07:35:38;22.17;;;11.80;;
3849;SDS011;1940;51.052;13.678;2024-01-30T07:38:04;20.80;;;11.07;;
3849;SDS011;1940;51.052;13.678;2024-01-30T07:40:29;20.67;;;10.70;;
3849;SDS011;1940;51.052;13.678;2024-01-30T07:42:55;23.03;;;10.80;;
3849;SDS011;1940;51.052;13.678;2024-01-30T07:45:20;27.60;;;11.13;;
3849;SDS011;1940;51.052;13.678;2024-01-30T07:47:48;20.67;;;10.50;;
3849;SDS011;1940;51.052;13.678;2024-01-30T07:50:14;22.40;;;10.43;;
3849;SDS011;1940;51.052;13.678;2024-01-30T07:52:41;21.83;;;10.30;;
3849;SDS011;1940;51.052;13.678;2024-01-30T07:55:10;20.33;;;10.53;;
3849;SDS011;1940;51.052;13.678;2024-01-30T07:57:38;22.00;;;10.60;;
3849;SDS011;1940;51.052;13.678;2024-01-30T08:00:04;21.77;;;10.97;;
3849;SDS011;1940;51.052;13.678;2024-01-30T08:02:30;19.97;;;10.23;;
3849;SDS011;1940;51.052;13.678;2024-01-30T08:04:56;19.57;;;10.40;;
3849;SDS011;1940;51.052;13.678;2024-01-30T08:07:21;20.23;;;10.17;;
3849;SDS011;1940;51.052;13.678;2024-01-30T08:09:47;18.33;;;10.13;;
3849;SDS011;1940;51.052;13.678;2024-01-30T08:12:13;22.87;;;11.03;;
3849;SDS011;1940;51.052;13.678;2024-01-30T08:14:38;19.43;;;10.90;;
3849;SDS011;1940;51.052;13.678;2024-01-30T08:17:04;17.80;;;10.33;;
3849;SDS011;1940;51.052;13.678;2024-01-30T08:19:32;26.43;;;10.23;;
3849;SDS011;1940;51.052;13.678;2024-01-30T08:21:58;21.60;;;10.23;;
3849;SDS011;1940;51.052;13.678;2024-01-30T08:24:23;19.20;;;10.37;;
3849;SDS011;1940;51.052;13.678;2024-01-30T08:26:49;21.70;;;10.47;;
3849;SDS011;1940;51.052;13.678;2024-01-30T08:29:14;20.33;;;10.20;;
3849;SDS011;1940;51.052;13.678;2024-01-30T08:31:40;22.13;;;10.80;;
3849;SDS011;1940;51.052;13.678;2024-01-30T08:34:05;20.97;;;10.27;;
3849;SDS011;1940;51.052;13.678;2024-01-30T08:36:31;22.53;;;10.80;;
3849;SDS011;1940;51.052;13.678;2024-01-30T08:38:56;20.83;;;10.67;;
3849;SDS011;1940;51.052;13.678;2024-01-30T08:41:22;20.13;;;10.37;;
3849;SDS011;1940;51.052;13.678;2024-01-30T08:43:47;19.03;;;10.20;;
3849;SDS011;1940;51.052;13.678;2024-01-30T08:46:13;19.73;;;10.40;;
3849;SDS011;1940;51.052;13.678;2024-01-30T08:48:41;17.67;;;9.60;;
3849;SDS011;1940;51.052;13.678;2024-01-30T08:51:07;20.47;;;10.33;;
3849;SDS011;1940;51.052;13.678;2024-01-30T08:53:33;21.43;;;10.93;;
3849;SDS011;1940;51.052;13.678;2024-01-30T08:55:59;18.80;;;10.90;;
3849;SDS011;1940;51.052;13.678;2024-01-30T08:58:25;18.57;;;10.63;;
3849;SDS011;1940;51.052;13.678;2024-01-30T09:00:50;20.90;;;10.63;;
3849;SDS011;1940;51.052;13.678;2024-01-30T09:03:17;23.80;;;11.57;;
3849;SDS011;1940;51.052;13.678;2024-01-30T09:05:43;23.07;;;11.00;;
3849;SDS011;1940;51.052;13.678;2024-01-30T09:08:08;18.17;;;10.17;;
3849;SDS011;1940;51.052;13.678;2024-01-30T09:10:34;17.77;;;10.10;;
3849;SDS011;1940;51.052;13.678;2024-01-30T09:13:00;22.23;;;13.30;;
3849;SDS011;1940;51.052;13.678;2024-01-30T09:15:25;17.43;;;10.17;;
3849;SDS011;1940;51.052;13.678;2024-01-30T09:17:50;20.63;;;11.00;;
3849;SDS011;1940;51.052;13.678;2024-01-30T09:20:16;20.43;;;10.60;;
3849;SDS011;1940;51.052;13.678;2024-01-30T09:22:41;19.50;;;10.00;;
3849;SDS011;1940;51.052;13.678;2024-01-30T09:25:07;19.33;;;10.33;;
3849;SDS011;1940;51.052;13.678;2024-01-30T09:27:32;18.93;;;9.80;;
3849;SDS011;1940;51.052;13.678;2024-01-30T09:29:58;17.10;;;10.47;;
3849;SDS011;1940;51.052;13.678;2024-01-30T09:32:23;16.93;;;10.00;;
3849;SDS011;1940;51.052;13.678;2024-01-30T09:34:49;19.80;;;10.73;;
3849;SDS011;1940;51.052;13.678;2024-01-30T09:37:14;21.83;;;10.50;;
3849;SDS011;1940;51.052;13.678;2024-01-30T09:39:42;18.03;;;9.63;;
3849;SDS011;1940;51.052;13.678;2024-01-30T09:42:18;16.90;;;9.83;;
3849;SDS011;1940;51.052;13.678;2024-01-30T09:44:51;17.50;;;9.70;;
3849;SDS011;1940;51.052;13.678;2024-01-30T09:47:18;17.90;;;10.90;;
3849;SDS011;1940;51.052;13.678;2024-01-30T09:49:43;21.00;;;10.43;;
3849;SDS011;1940;51.052;13.678;2024-01-30T09:52:09;21.90;;;10.50;;
3849;SDS011;1940;51.052;13.678;2024-01-30T09:54:35;18.70;;;9.80;;
3849;SDS011;1940;51.052;13.678;2024-01-30T09:57:02;23.73;;;10.37;;
3849;SDS011;1940;51.052;13.678;2024-01-30T09:59:28;24.33;;;10.27;;
3849;SDS011;1940;51.052;13.678;2024-01-30T10:01:54;20.07;;;10.30;;
3849;SDS011;1940;51.052;13.678;2024-01-30T10:04:20;16.70;;;10.30;;
3849;SDS011;1940;51.052;13.678;2024-01-30T10:06:45;20.03;;;10.97;;
3849;SDS011;1940;51.052;13.678;2024-01-30T10:09:12;20.13;;;11.07;;
3849;SDS011;1940;51.052;13.678;2024-01-30T10:11:38;17.77;;;10.17;;
3849;SDS011;1940;51.052;13.678;2024-01-30T10:14:04;22.13;;;10.40;;
3849;SDS011;1940;51.052;13.678;2024-01-30T10:16:30;23.37;;;10.60;;
3849;SDS011;1940;51.052;13.678;2024-01-30T10:18:56;24.80;;;10.30;;
3849;SDS011;1940;51.052;13.678;2024-01-30T10:21:21;18.63;;;10.03;;
3849;SDS011;1940;51.052;13.678;2024-01-30T10:23:47;21.20;;;9.50;;
3849;SDS011;1940;51.052;13.678;2024-01-30T10:26:12;19.83;;;10.43;;
3849;SDS011;1940;51.052;13.678;2024-01-30T10:28:38;19.50;;;10.93;;
3849;SDS011;1940;51.052;13.678;2024-01-30T10:31:04;16.43;;;9.40;;
3849;SDS011;1940;51.052;13.678;2024-01-30T10:33:30;18.40;;;9.30;;
3849;SDS011;1940;51.052;13.678;2024-01-30T10:35:57;14.57;;;9.33;;
3849;SDS011;1940;51.052;13.678;2024-01-30T10:38:27;17.70;;;10.23;;
3849;SDS011;1940;51.052;13.678;2024-01-30T10:40:58;17.20;;;10.00;;
3849;SDS011;1940;51.052;13.678;2024-01-30T10:43:32;16.70;;;9.43;;
3849;SDS011;1940;51.052;13.678;2024-01-30T10:46:03;20.83;;;9.93;;
3849;SDS011;1940;51.052;13.678;2024-01-30T10:48:36;16.80;;;9.00;;
3849;SDS011;1940;51.052;13.678;2024-01-30T10:51:09;15.30;;;8.93;;
3849;SDS011;1940;51.052;13.678;2024-01-30T10:53:36;18.87;;;10.33;;
3849;SDS011;1940;51.052;13.678;2024-01-30T10:56:02;19.63;;;9.20;;
3849;SDS011;1940;51.052;13.678;2024-01-30T10:58:29;14.77;;;9.00;;
3849;SDS011;1940;51.052;13.678;2024-01-30T11:00:55;18.23;;;9.80;;
3849;SDS011;1940;51.052;13.678;2024-01-30T11:03:21;15.90;;;8.93;;
3849;SDS011;1940;51.052;13.678;2024-01-30T11:05:50;19.93;;;10.67;;
3849;SDS011;1940;51.052;13.678;2024-01-30T11:08:26;19.07;;;9.80;;
3849;SDS011;1940;51.052;13.678;2024-01-30T11:10:58;18.37;;;9.60;;
3849;SDS011;1940;51.052;13.678;2024-01-30T11:13:31;16.70;;;9.93;;
3849;SDS011;1940;51.052;13.678;2024-01-30T11:16:01;16.23;;;9.37;;
3849;SDS011;1940;51.052;13.678;2024-01-30T11:18:30;15.80;;;9.10;;
3849;SDS011;1940;51.052;13.678;2024-01-30T11:21:00;17.17;;;9.93;;
3849;SDS011;1940;51.052;13.678;2024-01-30T11:23:30;16.40;;;9.40;;
3849;SDS011;1940;51.052;13.678;2024-01-30T11:25:56;19.27;;;9.87;;
3849;SDS011;1940;51.052;13.678;2024-01-30T11:28:22;18.83;;;9.60;;
3849;SDS011;1940;51.052;13.678;2024-01-30T11:30:48;17.03;;;9.90;;
3849;SDS011;1940;51.052;13.678;2024-01-30T11:33:26;16.80;;;9.97;;
3849;SDS011;1940;51.052;13.678;2024-01-30T11:35:57;19.03;;;9.50;;
3849;SDS011;1940;51.052;13.678;2024-01-30T11:38:27;23.33;;;9.80;;
3849;SDS011;1940;51.052;13.678;2024-01-30T11:40:54;17.20;;;9.93;;
3849;SDS011;1940;51.052;13.678;2024-01-30T11:43:23;16.33;;;9.30;;
3849;SDS011;1940;51.052;13.678;2024-01-30T11:45:49;20.53;;;11.17;;
3849;SDS011;1940;51.052;13.678;2024-01-30T11:48:15;23.20;;;10.67;;
3849;SDS011;1940;51.052;13.678;2024-01-30T11:50:40;22.90;;;10.40;;
3849;SDS011;1940;51.052;13.678;2024-01-30T11:53:06;21.93;;;10.77;;
3849;SDS011;1940;51.052;13.678;2024-01-30T11:55:31;22.30;;;10.07;;
3849;SDS011;1940;51.052;13.678;2024-01-30T11:57:59;17.87;;;10.00;;
3849;SDS011;1940;51.052;13.678;2024-01-30T12:00:25;20.67;;;9.90;;
3849;SDS011;1940;51.052;13.678;2024-01-30T12:02:51;17.10;;;9.33;;
3849;SDS011;1940;51.052;13.678;2024-01-30T12:05:21;19.10;;;10.03;;
3849;SDS011;1940;51.052;13.678;2024-01-30T12:07:47;19.27;;;10.57;;
3849;SDS011;1940;51.052;13.678;2024-01-30T12:10:13;17.77;;;10.50;;
3849;SDS011;1940;51.052;13.678;2024-01-30T12:12:39;29.13;;;10.80;;
3849;SDS011;1940;51.052;13.678;2024-01-30T12:15:08;19.27;;;10.10;;
3849;SDS011;1940;51.052;13.678;2024-01-30T12:17:37;21.00;;;10.73;;
3849;SDS011;1940;51.052;13.678;2024-01-30T12:20:03;19.03;;;9.73;;
3849;SDS011;1940;51.052;13.678;2024-01-30T12:22:32;16.47;;;9.17;;
3849;SDS011;1940;51.052;13.678;2024-01-30T12:25:08;19.03;;;10.60;;
3849;SDS011;1940;51.052;13.678;2024-01-30T12:27:34;22.30;;;10.30;;
3849;SDS011;1940;51.052;13.678;2024-01-30T12:30:07;21.60;;;9.93;;
3849;SDS011;1940;51.052;13.678;2024-01-30T12:32:41;24.33;;;10.10;;
3849;SDS011;1940;51.052;13.678;2024-01-30T12:37:36;23.43;;;10.20;;
3849;SDS011;1940;51.052;13.678;2024-01-30T12:40:02;20.00;;;10.80;;
3849;SDS011;1940;51.052;13.678;2024-01-30T12:42:28;19.10;;;10.13;;
3849;SDS011;1940;51.052;13.678;2024-01-30T12:44:53;23.83;;;11.27;;
3849;SDS011;1940;51.052;13.678;2024-01-30T12:47:21;19.00;;;9.83;;
3849;SDS011;1940;51.052;13.678;2024-01-30T12:49:46;21.80;;;10.67;;
3849;SDS011;1940;51.052;13.678;2024-01-30T12:52:13;21.90;;;10.50;;
3849;SDS011;1940;51.052;13.678;2024-01-30T12:54:44;17.30;;;9.47;;
3849;SDS011;1940;51.052;13.678;2024-01-30T12:57:09;17.80;;;10.40;;
3849;SDS011;1940;51.052;13.678;2024-01-30T12:59:35;20.63;;;10.37;;
3849;SDS011;1940;51.052;13.678;2024-01-30T13:02:01;18.30;;;10.00;;
3849;SDS011;1940;51.052;13.678;2024-01-30T13:04:28;22.50;;;10.90;;
3849;SDS011;1940;51.052;13.678;2024-01-30T13:06:53;20.40;;;10.20;;
3849;SDS011;1940;51.052;13.678;2024-01-30T13:09:19;16.63;;;9.43;;
3849;SDS011;1940;51.052;13.678;2024-01-30T13:11:45;25.60;;;10.47;;
3849;SDS011;1940;51.052;13.678;2024-01-30T13:14:10;23.57;;;10.53;;
3849;SDS011;1940;51.052;13.678;2024-01-30T13:16:36;16.20;;;9.47;;
3849;SDS011;1940;51.052;13.678;2024-01-30T13:19:01;16.63;;;9.87;;
3849;SDS011;1940;51.052;13.678;2024-01-30T13:21:27;19.37;;;10.20;;
3849;SDS011;1940;51.052;13.678;2024-01-30T13:23:53;20.00;;;10.17;;
3849;SDS011;1940;51.052;13.678;2024-01-30T13:26:19;19.93;;;10.70;;
3849;SDS011;1940;51.052;13.678;2024-01-30T13:28:45;21.70;;;10.17;;
3849;SDS011;1940;51.052;13.678;2024-01-30T13:31:11;16.80;;;9.90;;
3849;SDS011;1940;51.052;13.678;2024-01-30T13:33:37;18.93;;;10.13;;
3849;SDS011;1940;51.052;13.678;2024-01-30T13:36:03;22.93;;;10.17;;
3849;SDS011;1940;51.052;13.678;2024-01-30T13:38:28;19.60;;;10.93;;
3849;SDS011;1940;51.052;13.678;2024-01-30T13:40:54;19.57;;;10.93;;
3849;SDS011;1940;51.052;13.678;2024-01-30T13:43:19;20.30;;;10.87;;
3849;SDS011;1940;51.052;13.678;2024-01-30T13:45:45;19.13;;;10.53;;
3849;SDS011;1940;51.052;13.678;2024-01-30T13:48:11;20.17;;;10.70;;
3849;SDS011;1940;51.052;13.678;2024-01-30T13:50:36;20.83;;;11.07;;
3849;SDS011;1940;51.052;13.678;2024-01-30T13:53:02;21.93;;;10.53;;
3849;SDS011;1940;51.052;13.678;2024-01-30T13:55:29;20.50;;;11.10;;
3849;SDS011;1940;51.052;13.678;2024-01-30T13:57:54;23.77;;;11.53;;
3849;SDS011;1940;51.052;13.678;2024-01-30T14:00:21;24.33;;;11.50;;
3849;SDS011;1940;51.052;13.678;2024-01-30T14:02:47;26.37;;;12.10;;
3849;SDS011;1940;51.052;13.678;2024-01-30T14:05:13;22.40;;;12.00;;
3849;SDS011;1940;51.052;13.678;2024-01-30T14:07:39;19.17;;;10.70;;
3849;SDS011;1940;51.052;13.678;2024-01-30T14:10:07;22.93;;;12.10;;
3849;SDS011;1940;51.052;13.678;2024-01-30T14:12:35;22.80;;;12.03;;
3849;SDS011;1940;51.052;13.678;2024-01-30T14:15:01;23.37;;;11.93;;
3849;SDS011;1940;51.052;13.678;2024-01-30T14:17:26;22.07;;;10.93;;
3849;SDS011;1940;51.052;13.678;2024-01-30T14:19:52;23.43;;;10.90;;
3849;SDS011;1940;51.052;13.678;2024-01-30T14:22:17;19.40;;;10.40;;
3849;SDS011;1940;51.052;13.678;2024-01-30T14:24:43;22.93;;;11.10;;
3849;SDS011;1940;51.052;13.678;2024-01-30T14:27:09;23.93;;;11.90;;
3849;SDS011;1940;51.052;13.678;2024-01-30T14:29:35;21.17;;;11.40;;
3849;SDS011;1940;51.052;13.678;2024-01-30T14:32:00;21.27;;;11.30;;